Hugh R. Sharp — WDC9608 — position and weather

sailwx.info

Track history (hours):
 
Tides and Currents Weather Stations Pressure Air Temp Water Temp Dewpoint Dewpoint Depression Visibility Wind Speed Wind Dir Waves Ship Positions

Oceanographic research ship Hugh R. Sharp (USA)

Ship's website: http://www.ceoe.udel.edu/marine/rvSharp.shtml

Detailed information on ship capabilities available from University of Delaware's Ocean Information Center.

Owner: Warrior & yGulf Navigation Compan, Chickasaw, AL. More information available from US FCC via Universal Licensing System and Coast Guard Vessel Documentation Center.

Last reported at 2018-Oct-18 03:08 UTC. Time now 2018-Oct-18 09:15 UTC.
Position N 38°48' W 075°08'.

Length 40 m; draft 14 m.

Type: Other ship. MMSI: 367063060.

Date/timePositionNaut miles runAvg speedWind from/ knotsBaromVisibWave heightAir tempDewpointWater temp
2018-Oct-18 03:08N 38°48' W 075°08'27 1.9
2018-Oct-17 12:47N 38°33' W 074°39'1 3.2
2018-Oct-17 12:28N 38°33' W 074°40'0 0.7
2018-Oct-17 11:47N 38°33' W 074°40'2 4.6
2018-Oct-17 11:26N 38°32' W 074°39'28 1.4
2018-Oct-16 14:46N 38°47' W 075°10'0 0.0
2018-Oct-16 11:29N 38°47' W 075°10'0 0.0
2018-Oct-16 10:43N 38°47' W 075°10'0 0.0
2018-Oct-16 10:02N 38°47' W 075°10'0 0.0
2018-Oct-16 09:57N 38°47' W 075°10'0 0.0
2018-Oct-16 09:19N 38°47' W 075°10'0 0.0
2018-Oct-16 09:01N 38°47' W 075°10'0 0.0
2018-Oct-16 08:59N 38°47' W 075°10'0 0.0
2018-Oct-16 08:28N 38°47' W 075°10'0 0.0
2018-Oct-16 06:13N 38°47' W 075°10'0 0.0
2018-Oct-16 03:28N 38°47' W 075°10'0 0.0
2018-Oct-15 23:37N 38°47' W 075°10'0 0.0
2018-Oct-15 23:30N 38°47' W 075°10'0 0.0
2018-Oct-15 22:57N 38°47' W 075°10'0 0.0
2018-Oct-15 22:21N 38°47' W 075°10'0 0.0
2018-Oct-15 21:51N 38°47' W 075°10'0 0.0
2018-Oct-15 21:29N 38°47' W 075°10'0 0.0
2018-Oct-15 20:50N 38°47' W 075°10'0 0.0
2018-Oct-15 20:01N 38°47' W 075°10'0 0.0
2018-Oct-15 19:19N 38°47' W 075°10'0 0.0
2018-Oct-15 17:51N 38°47' W 075°10'0 0.0
2018-Oct-15 17:26N 38°47' W 075°10'0 0.0
2018-Oct-15 17:02N 38°47' W 075°10'0 0.0
2018-Oct-15 16:52N 38°47' W 075°10'0 0.0
2018-Oct-15 16:06N 38°47' W 075°10'0 0.0
2018-Oct-15 16:01N 38°47' W 075°10'0 0.0
2018-Oct-15 15:58N 38°47' W 075°10'0 0.0
2018-Oct-15 15:29N 38°47' W 075°10'0 0.0
2018-Oct-15 14:44N 38°47' W 075°10'0 0.0
2018-Oct-15 13:47N 38°47' W 075°10'0 0.0
2018-Oct-15 12:31N 38°47' W 075°10'0 0.0
2018-Oct-15 11:23N 38°47' W 075°10'0 0.0
2018-Oct-15 10:51N 38°47' W 075°10'0 0.0
2018-Oct-15 10:30N 38°47' W 075°10'0 0.0
2018-Oct-15 10:03N 38°47' W 075°10'0 0.0
2018-Oct-15 10:01N 38°47' W 075°10'0 0.0
2018-Oct-15 09:30N 38°47' W 075°10'0 0.0
2018-Oct-15 09:04N 38°47' W 075°10'0 0.0
2018-Oct-15 09:01N 38°47' W 075°10'0 0.0
2018-Oct-15 08:30N 38°47' W 075°10'0 0.0
2018-Oct-15 08:04N 38°47' W 075°10'0 0.0
2018-Oct-15 08:00N 38°47' W 075°10'0 0.0
2018-Oct-15 07:30N 38°47' W 075°10'0 0.0
2018-Oct-15 07:03N 38°47' W 075°10'0 0.0
2018-Oct-15 07:00N 38°47' W 075°10'0 0.0
2018-Oct-15 06:30N 38°47' W 075°10'0 0.0
2018-Oct-15 06:03N 38°47' W 075°10'0 0.0
2018-Oct-15 05:58N 38°47' W 075°10'0 0.0
2018-Oct-15 05:20N 38°47' W 075°10'0 0.0
2018-Oct-15 05:03N 38°47' W 075°10'0 0.0
2018-Oct-15 04:42N 38°47' W 075°10'0 0.0
2018-Oct-15 04:30N 38°47' W 075°10'0 0.0
2018-Oct-15 04:04N 38°47' W 075°10'0 0.0
2018-Oct-15 04:01N 38°47' W 075°10'0 0.0
2018-Oct-15 03:23N 38°47' W 075°10'0 0.0
2018-Oct-15 03:02N 38°47' W 075°10'0 0.0
2018-Oct-15 03:00N 38°47' W 075°10'0 0.0
2018-Oct-15 02:14N 38°47' W 075°10'0 0.0
2018-Oct-15 02:03N 38°47' W 075°10'0 0.0
2018-Oct-15 02:01N 38°47' W 075°10'0 0.0
2018-Oct-15 01:26N 38°47' W 075°10'0 0.0
2018-Oct-14 19:57N 38°47' W 075°10'0 0.0
2018-Oct-14 16:43N 38°47' W 075°10'0 0.0
2018-Oct-14 14:07N 38°47' W 075°10'0 0.0
2018-Oct-14 13:55N 38°47' W 075°10'0 0.0
2018-Oct-14 13:30N 38°47' W 075°10'0 0.0
2018-Oct-14 13:03N 38°47' W 075°10'0 0.0
2018-Oct-14 13:00N 38°47' W 075°10'0 0.0
2018-Oct-14 12:22N 38°47' W 075°10'0 0.0
2018-Oct-14 11:33N 38°47' W 075°10'0 0.0
2018-Oct-14 11:22N 38°47' W 075°10'0 0.0
2018-Oct-14 11:03N 38°47' W 075°10'0 0.0
2018-Oct-14 10:56N 38°47' W 075°10'0 0.0
2018-Oct-14 10:30N 38°47' W 075°10'0 0.0
2018-Oct-14 09:20N 38°47' W 075°10'0 0.0
2018-Oct-14 09:02N 38°47' W 075°10'0 0.0
2018-Oct-14 07:19N 38°47' W 075°10'0 0.0
2018-Oct-14 06:46N 38°47' W 075°10'0 0.0
2018-Oct-14 06:10N 38°47' W 075°10'0 0.0
2018-Oct-14 06:03N 38°47' W 075°10'0 0.0
2018-Oct-14 06:00N 38°47' W 075°10'0 0.0
2018-Oct-14 05:30N 38°47' W 075°10'0 0.0
2018-Oct-14 05:03N 38°47' W 075°10'0 0.0
2018-Oct-14 05:00N 38°47' W 075°10'0 0.0
2018-Oct-14 04:30N 38°47' W 075°10'0 0.0
2018-Oct-14 04:03N 38°47' W 075°10'0 0.0
2018-Oct-14 04:00N 38°47' W 075°10'0 0.0
2018-Oct-14 03:28N 38°47' W 075°10'0 0.0
2018-Oct-14 02:53N 38°47' W 075°10'0 0.0
2018-Oct-14 02:17N 38°47' W 075°10'0 0.0
2018-Oct-14 02:03N 38°47' W 075°10'0 0.0
2018-Oct-14 02:00N 38°47' W 075°10'0 0.0
2018-Oct-14 01:29N 38°47' W 075°10'0 0.0
2018-Oct-13 23:11N 38°47' W 075°10'0 0.0
2018-Oct-13 15:20N 38°47' W 075°10'0 0.0
2018-Oct-13 11:47N 38°47' W 075°10'0 0.0
2018-Oct-13 10:51N 38°47' W 075°10'0 0.0
2018-Oct-13 06:19N 38°47' W 075°10'0 0.0
2018-Oct-13 06:03N 38°47' W 075°10'0 0.0
2018-Oct-13 02:15N 38°47' W 075°10'0 0.0
2018-Oct-12 14:08N 38°47' W 075°10'0 0.0
2018-Oct-12 12:45N 38°47' W 075°10'0 0.0
2018-Oct-12 11:37N 38°47' W 075°10'0 0.0
2018-Oct-12 11:28N 38°47' W 075°10'0 0.0
2018-Oct-12 10:59N 38°47' W 075°10'0 0.0
2018-Oct-12 10:30N 38°47' W 075°10'0 0.0
2018-Oct-12 10:03N 38°47' W 075°10'0 0.0
2018-Oct-12 10:00N 38°47' W 075°10'0 0.0
2018-Oct-12 09:21N 38°47' W 075°10'0 0.0
2018-Oct-12 07:49N 38°47' W 075°10'0 0.0
2018-Oct-12 06:34N 38°47' W 075°10'0 0.0
2018-Oct-12 06:22N 38°47' W 075°10'0 0.0
2018-Oct-12 06:00N 38°47' W 075°10'0 0.0
2018-Oct-12 05:30N 38°47' W 075°10'0 0.0
2018-Oct-12 04:44N 38°47' W 075°10'0 0.0
2018-Oct-12 04:14N 38°47' W 075°10'0 0.0
2018-Oct-12 01:12N 38°47' W 075°10'0 0.0
2018-Oct-12 00:35N 38°47' W 075°10'0 0.0
2018-Oct-12 00:22N 38°47' W 075°10'0 0.0
2018-Oct-11 23:53N 38°47' W 075°10'0 0.0
2018-Oct-11 23:27N 38°47' W 075°10'0 0.0
2018-Oct-11 22:57N 38°47' W 075°10'0 0.0
2018-Oct-11 22:25N 38°47' W 075°10'0 0.0
2018-Oct-11 21:25N 38°47' W 075°10'0 0.0
2018-Oct-11 17:15N 38°47' W 075°10'0 0.0
2018-Oct-11 17:03N 38°47' W 075°10'0 0.0
2018-Oct-11 16:56N 38°47' W 075°10'0 0.0
2018-Oct-11 16:28N 38°47' W 075°10'0 0.0
2018-Oct-11 16:00N 38°47' W 075°10'0 0.0
2018-Oct-11 15:26N 38°47' W 075°10'0 0.0
2018-Oct-11 14:59N 38°47' W 075°10'0 0.0
2018-Oct-11 12:25N 38°47' W 075°10'0 0.0
2018-Oct-11 12:03N 38°47' W 075°10'0 0.0
2018-Oct-11 11:12N 38°47' W 075°10'0 0.0
2018-Oct-11 10:51N 38°47' W 075°10'0 0.0
2018-Oct-11 10:22N 38°47' W 075°10'0 0.0
2018-Oct-11 10:02N 38°47' W 075°10'0 0.0
2018-Oct-11 09:59N 38°47' W 075°10'0 0.0
2018-Oct-11 09:30N 38°47' W 075°10'0 0.0
2018-Oct-11 09:03N 38°47' W 075°10'0 0.0
2018-Oct-11 09:00N 38°47' W 075°10'0 0.0
2018-Oct-11 08:29N 38°47' W 075°10'0 0.0
2018-Oct-11 08:03N 38°47' W 075°10'0 0.0
2018-Oct-11 08:00N 38°47' W 075°10'0 0.0
2018-Oct-11 07:30N 38°47' W 075°10'0 0.0
2018-Oct-11 07:03N 38°47' W 075°10'0 0.0
2018-Oct-11 06:59N 38°47' W 075°10'0 0.0
2018-Oct-11 06:30N 38°47' W 075°10'0 0.0
2018-Oct-11 06:03N 38°47' W 075°10'0 0.0
2018-Oct-11 06:00N 38°47' W 075°10'0 0.0
2018-Oct-11 05:30N 38°47' W 075°10'0 0.0
2018-Oct-11 05:03N 38°47' W 075°10'0 0.0
2018-Oct-11 05:00N 38°47' W 075°10'0 0.0
2018-Oct-11 04:30N 38°47' W 075°10'0 0.0
2018-Oct-11 04:03N 38°47' W 075°10'0 0.0
2018-Oct-11 04:00N 38°47' W 075°10'0 0.0
2018-Oct-11 03:30N 38°47' W 075°10'0 0.0
2018-Oct-11 03:03N 38°47' W 075°10'0 0.0
2018-Oct-11 03:00N 38°47' W 075°10'0 0.0
2018-Oct-11 02:30N 38°47' W 075°10'0 0.0
2018-Oct-11 02:03N 38°47' W 075°10'0 0.0
2018-Oct-11 02:00N 38°47' W 075°10'0 0.0
2018-Oct-11 01:30N 38°47' W 075°10'0 0.0
2018-Oct-11 01:03N 38°47' W 075°10'0 0.0
2018-Oct-11 01:00N 38°47' W 075°10'0 0.0
2018-Oct-11 00:27N 38°47' W 075°10'0 0.0
2018-Oct-11 00:03N 38°47' W 075°10'0 0.0
2018-Oct-11 00:00N 38°47' W 075°10'0 0.0
2018-Oct-10 23:29N 38°47' W 075°10'0 0.0
2018-Oct-10 23:03N 38°47' W 075°10'0 0.0
2018-Oct-10 22:59N 38°47' W 075°10'0 0.0
2018-Oct-10 22:30N 38°47' W 075°10'0 0.0
2018-Oct-10 22:03N 38°47' W 075°10'0 0.0
2018-Oct-10 22:00N 38°47' W 075°10'0 0.0
2018-Oct-10 21:30N 38°47' W 075°10'0 0.0
2018-Oct-10 21:03N 38°47' W 075°10'0 0.0
2018-Oct-10 21:00N 38°47' W 075°10'0 0.0
2018-Oct-10 20:30N 38°47' W 075°10'0 0.0
2018-Oct-10 20:03N 38°47' W 075°10'0 0.0
2018-Oct-10 20:00N 38°47' W 075°10'0 0.0
2018-Oct-10 19:30N 38°47' W 075°10'0 0.0
2018-Oct-10 19:03N 38°47' W 075°10'0 0.0
2018-Oct-10 19:01N 38°47' W 075°10'0 0.0
2018-Oct-10 18:30N 38°47' W 075°10'0 0.0
2018-Oct-10 18:03N 38°47' W 075°10'0 0.0
2018-Oct-10 18:00N 38°47' W 075°10'0 0.0
2018-Oct-10 17:30N 38°47' W 075°10'0 0.0
2018-Oct-10 17:03N 38°47' W 075°10'0 0.0
2018-Oct-10 17:00N 38°47' W 075°10'0 0.0
2018-Oct-10 16:30N 38°47' W 075°10'0 0.0
2018-Oct-10 16:03N 38°47' W 075°10'0 0.0
2018-Oct-10 16:00N 38°47' W 075°10'0 0.0
2018-Oct-10 15:30N 38°47' W 075°10'0 0.0
2018-Oct-10 15:02N 38°47' W 075°10'0 0.0
2018-Oct-10 14:58N 38°47' W 075°10'0 0.0
2018-Oct-10 14:26N 38°47' W 075°10'0 0.0
2018-Oct-10 14:00N 38°47' W 075°10'0 0.0
2018-Oct-10 13:29N 38°47' W 075°10'0 0.0
2018-Oct-10 13:03N 38°47' W 075°10'0 0.0
2018-Oct-10 13:00N 38°47' W 075°10'0 0.0
2018-Oct-10 12:29N 38°47' W 075°10'0 0.0
2018-Oct-10 12:03N 38°47' W 075°10'0 0.0
2018-Oct-10 12:00N 38°47' W 075°10'0 0.0
2018-Oct-10 11:30N 38°47' W 075°10'0 0.0
2018-Oct-10 11:03N 38°47' W 075°10'0 0.0
2018-Oct-10 11:00N 38°47' W 075°10'0 0.0
2018-Oct-10 10:30N 38°47' W 075°10'0 0.0
2018-Oct-10 10:03N 38°47' W 075°10'0 0.0
2018-Oct-10 10:00N 38°47' W 075°10'0 0.0
2018-Oct-10 09:30N 38°47' W 075°10'0 0.0
2018-Oct-10 09:01N 38°47' W 075°10'0 0.0
2018-Oct-10 09:00N 38°47' W 075°10'0 0.0
2018-Oct-10 08:30N 38°47' W 075°10'0 0.0
2018-Oct-10 08:03N 38°47' W 075°10'0 0.0
2018-Oct-10 08:00N 38°47' W 075°10'0 0.0
2018-Oct-10 07:30N 38°47' W 075°10'0 0.0
2018-Oct-10 07:03N 38°47' W 075°10'0 0.0
2018-Oct-10 07:00N 38°47' W 075°10'0 0.0
2018-Oct-10 06:30N 38°47' W 075°10'0 0.0
2018-Oct-10 06:03N 38°47' W 075°10'0 0.0
2018-Oct-10 06:00N 38°47' W 075°10'0 0.0
2018-Oct-10 05:30N 38°47' W 075°10'0 0.0
2018-Oct-10 05:03N 38°47' W 075°10'0 0.0
2018-Oct-10 05:00N 38°47' W 075°10'0 0.0
2018-Oct-10 04:30N 38°47' W 075°10'0 0.0
2018-Oct-10 04:03N 38°47' W 075°10'0 0.0
2018-Oct-10 04:00N 38°47' W 075°10'0 0.0
2018-Oct-10 03:30N 38°47' W 075°10'0 0.0
2018-Oct-10 03:03N 38°47' W 075°10'0 0.0
2018-Oct-10 03:00N 38°47' W 075°10'0 0.0
2018-Oct-10 02:30N 38°47' W 075°10'0 0.0
2018-Oct-10 02:03N 38°47' W 075°10'0 0.0
2018-Oct-10 02:00N 38°47' W 075°10'0 0.0
2018-Oct-10 01:30N 38°47' W 075°10'0 0.0
2018-Oct-10 01:03N 38°47' W 075°10'0 0.0
2018-Oct-10 01:00N 38°47' W 075°10'0 0.0
2018-Oct-10 00:30N 38°47' W 075°10'0 0.0
2018-Oct-10 00:01N 38°47' W 075°10'0 0.0
2018-Oct-10 00:00N 38°47' W 075°10'0 0.0
2018-Oct-09 23:30N 38°47' W 075°10'0 0.0
2018-Oct-09 23:03N 38°47' W 075°10'0 0.0
2018-Oct-09 22:58N 38°47' W 075°10'0 0.0
2018-Oct-09 22:30N 38°47' W 075°10'0 0.0
2018-Oct-09 22:03N 38°47' W 075°10'0 0.0
2018-Oct-09 22:00N 38°47' W 075°10'0 0.0
2018-Oct-09 21:30N 38°47' W 075°10'0 0.0
2018-Oct-09 21:03N 38°47' W 075°10'0 0.0
2018-Oct-09 21:00N 38°47' W 075°10'0 0.0
2018-Oct-09 20:30N 38°47' W 075°10'0 0.0
2018-Oct-09 20:03N 38°47' W 075°10'0 0.0
2018-Oct-09 20:00N 38°47' W 075°10'0 0.0
2018-Oct-09 19:30N 38°47' W 075°10'0 0.0
2018-Oct-09 19:03N 38°47' W 075°10'0 0.0
2018-Oct-09 19:00N 38°47' W 075°10'0 0.0
2018-Oct-09 18:30N 38°47' W 075°10'0 0.0
2018-Oct-09 18:01N 38°47' W 075°10'0 0.0
2018-Oct-09 18:00N 38°47' W 075°10'0 0.0
2018-Oct-09 17:30N 38°47' W 075°10'0 0.0
2018-Oct-09 17:03N 38°47' W 075°10'0 0.0
2018-Oct-09 17:00N 38°47' W 075°10'0 0.0
2018-Oct-09 16:29N 38°47' W 075°10'0 0.0
2018-Oct-09 16:02N 38°47' W 075°10'0 0.0
2018-Oct-09 15:54N 38°47' W 075°10'0 0.0
2018-Oct-09 15:24N 38°47' W 075°10'0 0.0
2018-Oct-09 15:03N 38°47' W 075°10'0 0.0
2018-Oct-09 15:00N 38°47' W 075°10'0 0.0
2018-Oct-09 14:02N 38°47' W 075°10'0 0.0
2018-Oct-09 13:08N 38°47' W 075°10'0 0.0
2018-Oct-09 13:03N 38°47' W 075°10'0 0.0
2018-Oct-09 12:49N 38°47' W 075°10'0 0.0
2018-Oct-09 12:30N 38°47' W 075°10'0 0.0
2018-Oct-09 12:03N 38°47' W 075°10'0 0.0
2018-Oct-09 12:00N 38°47' W 075°10'0 0.0
2018-Oct-09 11:24N 38°47' W 075°10'0 0.0
2018-Oct-09 11:03N 38°47' W 075°10'0 0.0
2018-Oct-09 11:00N 38°47' W 075°10'0 0.0
2018-Oct-09 10:31N 38°47' W 075°10'0 0.0
2018-Oct-09 10:02N 38°47' W 075°10'0 0.0
2018-Oct-09 10:00N 38°47' W 075°10'0 0.0
2018-Oct-09 09:28N 38°47' W 075°10'0 0.0
2018-Oct-09 08:56N 38°47' W 075°10'0 0.0
2018-Oct-09 08:29N 38°47' W 075°10'0 0.0
2018-Oct-09 07:56N 38°47' W 075°10'0 0.0
2018-Oct-09 07:13N 38°47' W 075°10'0 0.0
2018-Oct-09 07:01N 38°47' W 075°10'0 0.0
2018-Oct-09 06:57N 38°47' W 075°10'0 0.0
2018-Oct-09 06:24N 38°47' W 075°10'0 0.0
2018-Oct-09 06:02N 38°47' W 075°10'0 0.0
2018-Oct-09 05:56N 38°47' W 075°10'0 0.0
2018-Oct-09 05:30N 38°47' W 075°10'0 0.0
2018-Oct-09 04:55N 38°47' W 075°10'0 0.0
2018-Oct-09 04:30N 38°47' W 075°10'0 0.0
2018-Oct-09 04:03N 38°47' W 075°10'0 0.0
2018-Oct-09 04:00N 38°47' W 075°10'0 0.0
2018-Oct-09 03:30N 38°47' W 075°10'0 0.0
2018-Oct-09 02:58N 38°47' W 075°10'0 0.0
2018-Oct-09 02:30N 38°47' W 075°10'0 0.0
2018-Oct-09 02:03N 38°47' W 075°10'0 0.0
2018-Oct-09 01:53N 38°47' W 075°10'0 0.0
2018-Oct-09 01:30N 38°47' W 075°10'0 0.0
2018-Oct-09 00:58N 38°47' W 075°10'0 0.0
2018-Oct-09 00:30N 38°47' W 075°10'0 0.0
2018-Oct-09 00:03N 38°47' W 075°10'0 0.0
2018-Oct-08 23:59N 38°47' W 075°10'0 0.0
2018-Oct-08 23:30N 38°47' W 075°10'0 0.0
2018-Oct-08 23:02N 38°47' W 075°10'0 0.0
2018-Oct-08 22:59N 38°47' W 075°10'0 0.0
2018-Oct-08 22:30N 38°47' W 075°10'0 0.0
2018-Oct-08 22:02N 38°47' W 075°10'0 0.0
2018-Oct-08 21:56N 38°47' W 075°10'0 0.0
2018-Oct-08 21:28N 38°47' W 075°10'0 0.0
2018-Oct-08 21:02N 38°47' W 075°10'0 0.0
2018-Oct-08 21:00N 38°47' W 075°10'0 0.0
2018-Oct-08 20:26N 38°47' W 075°10'0 0.0
2018-Oct-08 19:52N 38°47' W 075°10'0 0.0
2018-Oct-08 19:30N 38°47' W 075°10'0 0.0
2018-Oct-08 18:35N 38°47' W 075°10'0 0.0
2018-Oct-08 18:30N 38°47' W 075°10'0 0.0
2018-Oct-08 17:46N 38°47' W 075°10'0 0.0
2018-Oct-08 17:21N 38°47' W 075°10'0 0.0
2018-Oct-08 16:45N 38°47' W 075°10'0 0.0
2018-Oct-08 16:28N 38°47' W 075°10'0 0.0
2018-Oct-08 15:56N 38°47' W 075°10'0 0.0
2018-Oct-08 14:38N 38°47' W 075°10'0 0.0
2018-Oct-08 14:02N 38°47' W 075°10'0 0.0
2018-Oct-08 13:32N 38°47' W 075°10'0 0.0
2018-Oct-08 13:30N 38°47' W 075°10'0 0.0
2018-Oct-08 12:59N 38°47' W 075°10'0 0.0
2018-Oct-08 12:30N 38°47' W 075°10'0 0.0
2018-Oct-08 12:03N 38°47' W 075°10'0 0.0
2018-Oct-08 12:00N 38°47' W 075°10'0 0.0
2018-Oct-08 11:30N 38°47' W 075°10'0 0.0
2018-Oct-08 11:03N 38°47' W 075°10'0 0.0
2018-Oct-08 11:00N 38°47' W 075°10'0 0.0
2018-Oct-08 10:30N 38°47' W 075°10'0 0.0
2018-Oct-08 10:03N 38°47' W 075°10'0 0.0
2018-Oct-08 10:00N 38°47' W 075°10'0 0.0
2018-Oct-08 09:30N 38°47' W 075°10'0 0.0
2018-Oct-08 09:03N 38°47' W 075°10'0 0.0
2018-Oct-08 09:00N 38°47' W 075°10'0 0.0
2018-Oct-08 08:30N 38°47' W 075°10'0 0.0
2018-Oct-08 08:03N 38°47' W 075°10'0 0.0
2018-Oct-08 08:00N 38°47' W 075°10'0 0.0
2018-Oct-08 07:30N 38°47' W 075°10'0 0.0
2018-Oct-08 07:03N 38°47' W 075°10'0 0.0
2018-Oct-08 07:00N 38°47' W 075°10'0 0.0
2018-Oct-08 06:30N 38°47' W 075°10'0 0.0
2018-Oct-08 06:03N 38°47' W 075°10'0 0.0
2018-Oct-08 06:00N 38°47' W 075°10'0 0.0
2018-Oct-08 05:30N 38°47' W 075°10'0 0.0
2018-Oct-08 05:03N 38°47' W 075°10'0 0.0
2018-Oct-08 05:00N 38°47' W 075°10'0 0.0
2018-Oct-08 04:30N 38°47' W 075°10'0 0.0
2018-Oct-08 04:03N 38°47' W 075°10'0 0.0
2018-Oct-08 04:00N 38°47' W 075°10'0 0.0
2018-Oct-08 03:30N 38°47' W 075°10'  
Track history (hours):
 
Tides and Currents Weather Stations Pressure Air Temp Water Temp Dewpoint Dewpoint Depression Visibility Wind Speed Wind Dir Waves Ship Positions

Oceanographic research ship Hugh R. Sharp (USA)

Ship's website: http://www.ceoe.udel.edu/marine/rvSharp.shtml

Detailed information on ship capabilities available from University of Delaware's Ocean Information Center.

Owner: Warrior & yGulf Navigation Compan, Chickasaw, AL. More information available from US FCC via Universal Licensing System and Coast Guard Vessel Documentation Center.

Last reported at 2018-Oct-18 03:08 UTC. Time now 2018-Oct-18 09:15 UTC.
Position N 38°48' W 075°08'.

Length 40 m; draft 14 m.

Type: Other ship. MMSI: 367063060.

Date/timePositionNaut miles runAvg speedWind from/ knotsBaromVisibWave heightAir tempDewpointWater temp
2018-Oct-18 03:08N 38°48' W 075°08'27 1.9
2018-Oct-17 12:47N 38°33' W 074°39'1 3.2
2018-Oct-17 12:28N 38°33' W 074°40'0 0.7
2018-Oct-17 11:47N 38°33' W 074°40'2 4.6
2018-Oct-17 11:26N 38°32' W 074°39'28 1.4
2018-Oct-16 14:46N 38°47' W 075°10'0 0.0
2018-Oct-16 11:29N 38°47' W 075°10'0 0.0
2018-Oct-16 10:43N 38°47' W 075°10'0 0.0
2018-Oct-16 10:02N 38°47' W 075°10'0 0.0
2018-Oct-16 09:57N 38°47' W 075°10'0 0.0
2018-Oct-16 09:19N 38°47' W 075°10'0 0.0
2018-Oct-16 09:01N 38°47' W 075°10'0 0.0
2018-Oct-16 08:59N 38°47' W 075°10'0 0.0
2018-Oct-16 08:28N 38°47' W 075°10'0 0.0
2018-Oct-16 06:13N 38°47' W 075°10'0 0.0
2018-Oct-16 03:28N 38°47' W 075°10'0 0.0
2018-Oct-15 23:37N 38°47' W 075°10'0 0.0
2018-Oct-15 23:30N 38°47' W 075°10'0 0.0
2018-Oct-15 22:57N 38°47' W 075°10'0 0.0
2018-Oct-15 22:21N 38°47' W 075°10'0 0.0
2018-Oct-15 21:51N 38°47' W 075°10'0 0.0
2018-Oct-15 21:29N 38°47' W 075°10'0 0.0
2018-Oct-15 20:50N 38°47' W 075°10'0 0.0
2018-Oct-15 20:01N 38°47' W 075°10'0 0.0
2018-Oct-15 19:19N 38°47' W 075°10'0 0.0
2018-Oct-15 17:51N 38°47' W 075°10'0 0.0
2018-Oct-15 17:26N 38°47' W 075°10'0 0.0
2018-Oct-15 17:02N 38°47' W 075°10'0 0.0
2018-Oct-15 16:52N 38°47' W 075°10'0 0.0
2018-Oct-15 16:06N 38°47' W 075°10'0 0.0
2018-Oct-15 16:01N 38°47' W 075°10'0 0.0
2018-Oct-15 15:58N 38°47' W 075°10'0 0.0
2018-Oct-15 15:29N 38°47' W 075°10'0 0.0
2018-Oct-15 14:44N 38°47' W 075°10'0 0.0
2018-Oct-15 13:47N 38°47' W 075°10'0 0.0
2018-Oct-15 12:31N 38°47' W 075°10'0 0.0
2018-Oct-15 11:23N 38°47' W 075°10'0 0.0
2018-Oct-15 10:51N 38°47' W 075°10'0 0.0
2018-Oct-15 10:30N 38°47' W 075°10'0 0.0
2018-Oct-15 10:03N 38°47' W 075°10'0 0.0
2018-Oct-15 10:01N 38°47' W 075°10'0 0.0
2018-Oct-15 09:30N 38°47' W 075°10'0 0.0
2018-Oct-15 09:04N 38°47' W 075°10'0 0.0
2018-Oct-15 09:01N 38°47' W 075°10'0 0.0
2018-Oct-15 08:30N 38°47' W 075°10'0 0.0
2018-Oct-15 08:04N 38°47' W 075°10'0 0.0
2018-Oct-15 08:00N 38°47' W 075°10'0 0.0
2018-Oct-15 07:30N 38°47' W 075°10'0 0.0
2018-Oct-15 07:03N 38°47' W 075°10'0 0.0
2018-Oct-15 07:00N 38°47' W 075°10'0 0.0
2018-Oct-15 06:30N 38°47' W 075°10'0 0.0
2018-Oct-15 06:03N 38°47' W 075°10'0 0.0
2018-Oct-15 05:58N 38°47' W 075°10'0 0.0
2018-Oct-15 05:20N 38°47' W 075°10'0 0.0
2018-Oct-15 05:03N 38°47' W 075°10'0 0.0
2018-Oct-15 04:42N 38°47' W 075°10'0 0.0
2018-Oct-15 04:30N 38°47' W 075°10'0 0.0
2018-Oct-15 04:04N 38°47' W 075°10'0 0.0
2018-Oct-15 04:01N 38°47' W 075°10'0 0.0
2018-Oct-15 03:23N 38°47' W 075°10'0 0.0
2018-Oct-15 03:02N 38°47' W 075°10'0 0.0
2018-Oct-15 03:00N 38°47' W 075°10'0 0.0
2018-Oct-15 02:14N 38°47' W 075°10'0 0.0
2018-Oct-15 02:03N 38°47' W 075°10'0 0.0
2018-Oct-15 02:01N 38°47' W 075°10'0 0.0
2018-Oct-15 01:26N 38°47' W 075°10'0 0.0
2018-Oct-14 19:57N 38°47' W 075°10'0 0.0
2018-Oct-14 16:43N 38°47' W 075°10'0 0.0
2018-Oct-14 14:07N 38°47' W 075°10'0 0.0
2018-Oct-14 13:55N 38°47' W 075°10'0 0.0
2018-Oct-14 13:30N 38°47' W 075°10'0 0.0
2018-Oct-14 13:03N 38°47' W 075°10'0 0.0
2018-Oct-14 13:00N 38°47' W 075°10'0 0.0
2018-Oct-14 12:22N 38°47' W 075°10'0 0.0
2018-Oct-14 11:33N 38°47' W 075°10'0 0.0
2018-Oct-14 11:22N 38°47' W 075°10'0 0.0
2018-Oct-14 11:03N 38°47' W 075°10'0 0.0
2018-Oct-14 10:56N 38°47' W 075°10'0 0.0
2018-Oct-14 10:30N 38°47' W 075°10'0 0.0
2018-Oct-14 09:20N 38°47' W 075°10'0 0.0
2018-Oct-14 09:02N 38°47' W 075°10'0 0.0
2018-Oct-14 07:19N 38°47' W 075°10'0 0.0
2018-Oct-14 06:46N 38°47' W 075°10'0 0.0
2018-Oct-14 06:10N 38°47' W 075°10'0 0.0
2018-Oct-14 06:03N 38°47' W 075°10'0 0.0
2018-Oct-14 06:00N 38°47' W 075°10'0 0.0
2018-Oct-14 05:30N 38°47' W 075°10'0 0.0
2018-Oct-14 05:03N 38°47' W 075°10'0 0.0
2018-Oct-14 05:00N 38°47' W 075°10'0 0.0
2018-Oct-14 04:30N 38°47' W 075°10'0 0.0
2018-Oct-14 04:03N 38°47' W 075°10'0 0.0
2018-Oct-14 04:00N 38°47' W 075°10'0 0.0
2018-Oct-14 03:28N 38°47' W 075°10'0 0.0
2018-Oct-14 02:53N 38°47' W 075°10'0 0.0
2018-Oct-14 02:17N 38°47' W 075°10'0 0.0
2018-Oct-14 02:03N 38°47' W 075°10'0 0.0
2018-Oct-14 02:00N 38°47' W 075°10'0 0.0
2018-Oct-14 01:29N 38°47' W 075°10'0 0.0
2018-Oct-13 23:11N 38°47' W 075°10'0 0.0
2018-Oct-13 15:20N 38°47' W 075°10'0 0.0
2018-Oct-13 11:47N 38°47' W 075°10'0 0.0
2018-Oct-13 10:51N 38°47' W 075°10'0 0.0
2018-Oct-13 06:19N 38°47' W 075°10'0 0.0
2018-Oct-13 06:03N 38°47' W 075°10'0 0.0
2018-Oct-13 02:15N 38°47' W 075°10'0 0.0
2018-Oct-12 14:08N 38°47' W 075°10'0 0.0
2018-Oct-12 12:45N 38°47' W 075°10'0 0.0
2018-Oct-12 11:37N 38°47' W 075°10'0 0.0
2018-Oct-12 11:28N 38°47' W 075°10'0 0.0
2018-Oct-12 10:59N 38°47' W 075°10'0 0.0
2018-Oct-12 10:30N 38°47' W 075°10'0 0.0
2018-Oct-12 10:03N 38°47' W 075°10'0 0.0
2018-Oct-12 10:00N 38°47' W 075°10'0 0.0
2018-Oct-12 09:21N 38°47' W 075°10'0 0.0
2018-Oct-12 07:49N 38°47' W 075°10'0 0.0
2018-Oct-12 06:34N 38°47' W 075°10'0 0.0
2018-Oct-12 06:22N 38°47' W 075°10'0 0.0
2018-Oct-12 06:00N 38°47' W 075°10'0 0.0
2018-Oct-12 05:30N 38°47' W 075°10'0 0.0
2018-Oct-12 04:44N 38°47' W 075°10'0 0.0
2018-Oct-12 04:14N 38°47' W 075°10'0 0.0
2018-Oct-12 01:12N 38°47' W 075°10'0 0.0
2018-Oct-12 00:35N 38°47' W 075°10'0 0.0
2018-Oct-12 00:22N 38°47' W 075°10'0 0.0
2018-Oct-11 23:53N 38°47' W 075°10'0 0.0
2018-Oct-11 23:27N 38°47' W 075°10'0 0.0
2018-Oct-11 22:57N 38°47' W 075°10'0 0.0
2018-Oct-11 22:25N 38°47' W 075°10'0 0.0
2018-Oct-11 21:25N 38°47' W 075°10'0 0.0
2018-Oct-11 17:15N 38°47' W 075°10'0 0.0
2018-Oct-11 17:03N 38°47' W 075°10'0 0.0
2018-Oct-11 16:56N 38°47' W 075°10'0 0.0
2018-Oct-11 16:28N 38°47' W 075°10'0 0.0
2018-Oct-11 16:00N 38°47' W 075°10'0 0.0
2018-Oct-11 15:26N 38°47' W 075°10'0 0.0
2018-Oct-11 14:59N 38°47' W 075°10'0 0.0
2018-Oct-11 12:25N 38°47' W 075°10'0 0.0
2018-Oct-11 12:03N 38°47' W 075°10'0 0.0
2018-Oct-11 11:12N 38°47' W 075°10'0 0.0
2018-Oct-11 10:51N 38°47' W 075°10'0 0.0
2018-Oct-11 10:22N 38°47' W 075°10'0 0.0
2018-Oct-11 10:02N 38°47' W 075°10'0 0.0
2018-Oct-11 09:59N 38°47' W 075°10'0 0.0
2018-Oct-11 09:30N 38°47' W 075°10'0 0.0
2018-Oct-11 09:03N 38°47' W 075°10'0 0.0
2018-Oct-11 09:00N 38°47' W 075°10'0 0.0
2018-Oct-11 08:29N 38°47' W 075°10'0 0.0
2018-Oct-11 08:03N 38°47' W 075°10'0 0.0
2018-Oct-11 08:00N 38°47' W 075°10'0 0.0
2018-Oct-11 07:30N 38°47' W 075°10'0 0.0
2018-Oct-11 07:03N 38°47' W 075°10'0 0.0
2018-Oct-11 06:59N 38°47' W 075°10'0 0.0
2018-Oct-11 06:30N 38°47' W 075°10'0 0.0
2018-Oct-11 06:03N 38°47' W 075°10'0 0.0
2018-Oct-11 06:00N 38°47' W 075°10'0 0.0
2018-Oct-11 05:30N 38°47' W 075°10'0 0.0
2018-Oct-11 05:03N 38°47' W 075°10'0 0.0
2018-Oct-11 05:00N 38°47' W 075°10'0 0.0
2018-Oct-11 04:30N 38°47' W 075°10'0 0.0
2018-Oct-11 04:03N 38°47' W 075°10'0 0.0
2018-Oct-11 04:00N 38°47' W 075°10'0 0.0
2018-Oct-11 03:30N 38°47' W 075°10'0 0.0
2018-Oct-11 03:03N 38°47' W 075°10'0 0.0
2018-Oct-11 03:00N 38°47' W 075°10'0 0.0
2018-Oct-11 02:30N 38°47' W 075°10'0 0.0
2018-Oct-11 02:03N 38°47' W 075°10'0 0.0
2018-Oct-11 02:00N 38°47' W 075°10'0 0.0
2018-Oct-11 01:30N 38°47' W 075°10'0 0.0
2018-Oct-11 01:03N 38°47' W 075°10'0 0.0
2018-Oct-11 01:00N 38°47' W 075°10'0 0.0
2018-Oct-11 00:27N 38°47' W 075°10'0 0.0
2018-Oct-11 00:03N 38°47' W 075°10'0 0.0
2018-Oct-11 00:00N 38°47' W 075°10'0 0.0
2018-Oct-10 23:29N 38°47' W 075°10'0 0.0
2018-Oct-10 23:03N 38°47' W 075°10'0 0.0
2018-Oct-10 22:59N 38°47' W 075°10'0 0.0
2018-Oct-10 22:30N 38°47' W 075°10'0 0.0
2018-Oct-10 22:03N 38°47' W 075°10'0 0.0
2018-Oct-10 22:00N 38°47' W 075°10'0 0.0
2018-Oct-10 21:30N 38°47' W 075°10'0 0.0
2018-Oct-10 21:03N 38°47' W 075°10'0 0.0
2018-Oct-10 21:00N 38°47' W 075°10'0 0.0
2018-Oct-10 20:30N 38°47' W 075°10'0 0.0
2018-Oct-10 20:03N 38°47' W 075°10'0 0.0
2018-Oct-10 20:00N 38°47' W 075°10'0 0.0
2018-Oct-10 19:30N 38°47' W 075°10'0 0.0
2018-Oct-10 19:03N 38°47' W 075°10'0 0.0
2018-Oct-10 19:01N 38°47' W 075°10'0 0.0
2018-Oct-10 18:30N 38°47' W 075°10'0 0.0
2018-Oct-10 18:03N 38°47' W 075°10'0 0.0
2018-Oct-10 18:00N 38°47' W 075°10'0 0.0
2018-Oct-10 17:30N 38°47' W 075°10'0 0.0
2018-Oct-10 17:03N 38°47' W 075°10'0 0.0
2018-Oct-10 17:00N 38°47' W 075°10'0 0.0
2018-Oct-10 16:30N 38°47' W 075°10'0 0.0
2018-Oct-10 16:03N 38°47' W 075°10'0 0.0
2018-Oct-10 16:00N 38°47' W 075°10'0 0.0
2018-Oct-10 15:30N 38°47' W 075°10'0 0.0
2018-Oct-10 15:02N 38°47' W 075°10'0 0.0
2018-Oct-10 14:58N 38°47' W 075°10'0 0.0
2018-Oct-10 14:26N 38°47' W 075°10'0 0.0
2018-Oct-10 14:00N 38°47' W 075°10'0 0.0
2018-Oct-10 13:29N 38°47' W 075°10'0 0.0
2018-Oct-10 13:03N 38°47' W 075°10'0 0.0
2018-Oct-10 13:00N 38°47' W 075°10'0 0.0
2018-Oct-10 12:29N 38°47' W 075°10'0 0.0
2018-Oct-10 12:03N 38°47' W 075°10'0 0.0
2018-Oct-10 12:00N 38°47' W 075°10'0 0.0
2018-Oct-10 11:30N 38°47' W 075°10'0 0.0
2018-Oct-10 11:03N 38°47' W 075°10'0 0.0
2018-Oct-10 11:00N 38°47' W 075°10'0 0.0
2018-Oct-10 10:30N 38°47' W 075°10'0 0.0
2018-Oct-10 10:03N 38°47' W 075°10'0 0.0
2018-Oct-10 10:00N 38°47' W 075°10'0 0.0
2018-Oct-10 09:30N 38°47' W 075°10'0 0.0
2018-Oct-10 09:01N 38°47' W 075°10'0 0.0
2018-Oct-10 09:00N 38°47' W 075°10'0 0.0
2018-Oct-10 08:30N 38°47' W 075°10'0 0.0
2018-Oct-10 08:03N 38°47' W 075°10'0 0.0
2018-Oct-10 08:00N 38°47' W 075°10'0 0.0
2018-Oct-10 07:30N 38°47' W 075°10'0 0.0
2018-Oct-10 07:03N 38°47' W 075°10'0 0.0
2018-Oct-10 07:00N 38°47' W 075°10'0 0.0
2018-Oct-10 06:30N 38°47' W 075°10'0 0.0
2018-Oct-10 06:03N 38°47' W 075°10'0 0.0
2018-Oct-10 06:00N 38°47' W 075°10'0 0.0
2018-Oct-10 05:30N 38°47' W 075°10'0 0.0
2018-Oct-10 05:03N 38°47' W 075°10'0 0.0
2018-Oct-10 05:00N 38°47' W 075°10'0 0.0
2018-Oct-10 04:30N 38°47' W 075°10'0 0.0
2018-Oct-10 04:03N 38°47' W 075°10'0 0.0
2018-Oct-10 04:00N 38°47' W 075°10'0 0.0
2018-Oct-10 03:30N 38°47' W 075°10'0 0.0
2018-Oct-10 03:03N 38°47' W 075°10'0 0.0
2018-Oct-10 03:00N 38°47' W 075°10'0 0.0
2018-Oct-10 02:30N 38°47' W 075°10'0 0.0
2018-Oct-10 02:03N 38°47' W 075°10'0 0.0
2018-Oct-10 02:00N 38°47' W 075°10'0 0.0
2018-Oct-10 01:30N 38°47' W 075°10'0 0.0
2018-Oct-10 01:03N 38°47' W 075°10'0 0.0
2018-Oct-10 01:00N 38°47' W 075°10'0 0.0
2018-Oct-10 00:30N 38°47' W 075°10'0 0.0
2018-Oct-10 00:01N 38°47' W 075°10'0 0.0
2018-Oct-10 00:00N 38°47' W 075°10'0 0.0
2018-Oct-09 23:30N 38°47' W 075°10'0 0.0
2018-Oct-09 23:03N 38°47' W 075°10'0 0.0
2018-Oct-09 22:58N 38°47' W 075°10'0 0.0
2018-Oct-09 22:30N 38°47' W 075°10'0 0.0
2018-Oct-09 22:03N 38°47' W 075°10'0 0.0
2018-Oct-09 22:00N 38°47' W 075°10'0 0.0
2018-Oct-09 21:30N 38°47' W 075°10'0 0.0
2018-Oct-09 21:03N 38°47' W 075°10'0 0.0
2018-Oct-09 21:00N 38°47' W 075°10'0 0.0
2018-Oct-09 20:30N 38°47' W 075°10'0 0.0
2018-Oct-09 20:03N 38°47' W 075°10'0 0.0
2018-Oct-09 20:00N 38°47' W 075°10'0 0.0
2018-Oct-09 19:30N 38°47' W 075°10'0 0.0
2018-Oct-09 19:03N 38°47' W 075°10'0 0.0
2018-Oct-09 19:00N 38°47' W 075°10'0 0.0
2018-Oct-09 18:30N 38°47' W 075°10'0 0.0
2018-Oct-09 18:01N 38°47' W 075°10'0 0.0
2018-Oct-09 18:00N 38°47' W 075°10'0 0.0
2018-Oct-09 17:30N 38°47' W 075°10'0 0.0
2018-Oct-09 17:03N 38°47' W 075°10'0 0.0
2018-Oct-09 17:00N 38°47' W 075°10'0 0.0
2018-Oct-09 16:29N 38°47' W 075°10'0 0.0
2018-Oct-09 16:02N 38°47' W 075°10'0 0.0
2018-Oct-09 15:54N 38°47' W 075°10'0 0.0
2018-Oct-09 15:24N 38°47' W 075°10'0 0.0
2018-Oct-09 15:03N 38°47' W 075°10'0 0.0
2018-Oct-09 15:00N 38°47' W 075°10'0 0.0
2018-Oct-09 14:02N 38°47' W 075°10'0 0.0
2018-Oct-09 13:08N 38°47' W 075°10'0 0.0
2018-Oct-09 13:03N 38°47' W 075°10'0 0.0
2018-Oct-09 12:49N 38°47' W 075°10'0 0.0
2018-Oct-09 12:30N 38°47' W 075°10'0 0.0
2018-Oct-09 12:03N 38°47' W 075°10'0 0.0
2018-Oct-09 12:00N 38°47' W 075°10'0 0.0
2018-Oct-09 11:24N 38°47' W 075°10'0 0.0
2018-Oct-09 11:03N 38°47' W 075°10'0 0.0
2018-Oct-09 11:00N 38°47' W 075°10'0 0.0
2018-Oct-09 10:31N 38°47' W 075°10'0 0.0
2018-Oct-09 10:02N 38°47' W 075°10'0 0.0
2018-Oct-09 10:00N 38°47' W 075°10'0 0.0
2018-Oct-09 09:28N 38°47' W 075°10'0 0.0
2018-Oct-09 08:56N 38°47' W 075°10'0 0.0
2018-Oct-09 08:29N 38°47' W 075°10'0 0.0
2018-Oct-09 07:56N 38°47' W 075°10'0 0.0
2018-Oct-09 07:13N 38°47' W 075°10'0 0.0
2018-Oct-09 07:01N 38°47' W 075°10'0 0.0
2018-Oct-09 06:57N 38°47' W 075°10'0 0.0
2018-Oct-09 06:24N 38°47' W 075°10'0 0.0
2018-Oct-09 06:02N 38°47' W 075°10'0 0.0
2018-Oct-09 05:56N 38°47' W 075°10'0 0.0
2018-Oct-09 05:30N 38°47' W 075°10'0 0.0
2018-Oct-09 04:55N 38°47' W 075°10'0 0.0
2018-Oct-09 04:30N 38°47' W 075°10'0 0.0
2018-Oct-09 04:03N 38°47' W 075°10'0 0.0
2018-Oct-09 04:00N 38°47' W 075°10'0 0.0
2018-Oct-09 03:30N 38°47' W 075°10'0 0.0
2018-Oct-09 02:58N 38°47' W 075°10'0 0.0
2018-Oct-09 02:30N 38°47' W 075°10'0 0.0
2018-Oct-09 02:03N 38°47' W 075°10'0 0.0
2018-Oct-09 01:53N 38°47' W 075°10'0 0.0
2018-Oct-09 01:30N 38°47' W 075°10'0 0.0
2018-Oct-09 00:58N 38°47' W 075°10'0 0.0
2018-Oct-09 00:30N 38°47' W 075°10'0 0.0
2018-Oct-09 00:03N 38°47' W 075°10'0 0.0
2018-Oct-08 23:59N 38°47' W 075°10'0 0.0
2018-Oct-08 23:30N 38°47' W 075°10'0 0.0
2018-Oct-08 23:02N 38°47' W 075°10'0 0.0
2018-Oct-08 22:59N 38°47' W 075°10'0 0.0
2018-Oct-08 22:30N 38°47' W 075°10'0 0.0
2018-Oct-08 22:02N 38°47' W 075°10'0 0.0
2018-Oct-08 21:56N 38°47' W 075°10'0 0.0
2018-Oct-08 21:28N 38°47' W 075°10'0 0.0
2018-Oct-08 21:02N 38°47' W 075°10'0 0.0
2018-Oct-08 21:00N 38°47' W 075°10'0 0.0
2018-Oct-08 20:26N 38°47' W 075°10'0 0.0
2018-Oct-08 19:52N 38°47' W 075°10'0 0.0
2018-Oct-08 19:30N 38°47' W 075°10'0 0.0
2018-Oct-08 18:35N 38°47' W 075°10'0 0.0
2018-Oct-08 18:30N 38°47' W 075°10'0 0.0
2018-Oct-08 17:46N 38°47' W 075°10'0 0.0
2018-Oct-08 17:21N 38°47' W 075°10'0 0.0
2018-Oct-08 16:45N 38°47' W 075°10'0 0.0
2018-Oct-08 16:28N 38°47' W 075°10'0 0.0
2018-Oct-08 15:56N 38°47' W 075°10'0 0.0
2018-Oct-08 14:38N 38°47' W 075°10'0 0.0
2018-Oct-08 14:02N 38°47' W 075°10'0 0.0
2018-Oct-08 13:32N 38°47' W 075°10'0 0.0
2018-Oct-08 13:30N 38°47' W 075°10'0 0.0
2018-Oct-08 12:59N 38°47' W 075°10'0 0.0
2018-Oct-08 12:30N 38°47' W 075°10'0 0.0
2018-Oct-08 12:03N 38°47' W 075°10'0 0.0
2018-Oct-08 12:00N 38°47' W 075°10'0 0.0
2018-Oct-08 11:30N 38°47' W 075°10'0 0.0
2018-Oct-08 11:03N 38°47' W 075°10'0 0.0
2018-Oct-08 11:00N 38°47' W 075°10'0 0.0
2018-Oct-08 10:30N 38°47' W 075°10'0 0.0
2018-Oct-08 10:03N 38°47' W 075°10'0 0.0
2018-Oct-08 10:00N 38°47' W 075°10'0 0.0
2018-Oct-08 09:30N 38°47' W 075°10'0 0.0
2018-Oct-08 09:03N 38°47' W 075°10'0 0.0
2018-Oct-08 09:00N 38°47' W 075°10'0 0.0
2018-Oct-08 08:30N 38°47' W 075°10'0 0.0
2018-Oct-08 08:03N 38°47' W 075°10'0 0.0
2018-Oct-08 08:00N 38°47' W 075°10'0 0.0
2018-Oct-08 07:30N 38°47' W 075°10'0 0.0
2018-Oct-08 07:03N 38°47' W 075°10'0 0.0
2018-Oct-08 07:00N 38°47' W 075°10'0 0.0
2018-Oct-08 06:30N 38°47' W 075°10'0 0.0
2018-Oct-08 06:03N 38°47' W 075°10'0 0.0
2018-Oct-08 06:00N 38°47' W 075°10'0 0.0
2018-Oct-08 05:30N 38°47' W 075°10'0 0.0
2018-Oct-08 05:03N 38°47' W 075°10'0 0.0
2018-Oct-08 05:00N 38°47' W 075°10'0 0.0
2018-Oct-08 04:30N 38°47' W 075°10'0 0.0
2018-Oct-08 04:03N 38°47' W 075°10'0 0.0
2018-Oct-08 04:00N 38°47' W 075°10'0 0.0
2018-Oct-08 03:30N 38°47' W 075°10'  

Dump ship's entire track history